Time;durP1;ratioP1;P1;durP2;ratioP2;P2;SDS_P1;SDS_P2;PMS_P1;PMS_P2;Temp;Humidity;BMP_temperature;BMP_pressure;BME280_temperature;BME280_humidity;BME280_pressure;Samples;Min_cycle;Max_cycle;Signal;HPM_P1;HPM_P2
2022/08/20 00:02:19;;;;;;;19.48;17.48;;;18.20;99.90;;;;;;5040996;28;20394;-78
2022/08/20 00:04:45;;;;;;;22.30;18.55;;;18.00;99.90;;;;;;5046876;28;20017;-77
2022/08/20 00:07:12;;;;;;;21.42;17.95;;;17.90;99.90;;;;;;5027894;28;20032;-77
2022/08/20 00:09:38;;;;;;;21.17;18.30;;;18.00;99.90;;;;;;5022096;28;20021;-77
2022/08/20 00:12:05;;;;;;;23.52;18.63;;;18.00;99.90;;;;;;5022993;28;20107;-78
2022/08/20 00:14:31;;;;;;;21.38;17.65;;;17.80;99.90;;;;;;5028450;28;20502;-78
2022/08/20 00:16:58;;;;;;;23.67;18.65;;;17.90;99.90;;;;;;5048431;28;20036;-78
2022/08/20 00:19:23;;;;;;;27.20;18.98;;;17.80;99.90;;;;;;5025811;28;20025;-78
2022/08/20 00:21:49;;;;;;;26.10;20.17;;;17.60;99.90;;;;;;5044167;28;20029;-77
2022/08/20 00:24:14;;;;;;;28.95;21.63;;;17.60;99.90;;;;;;5056504;28;20028;-78
2022/08/20 00:26:40;;;;;;;22.90;19.92;;;17.40;99.90;;;;;;5055933;28;20063;-76
2022/08/20 00:29:06;;;;;;;30.13;21.10;;;17.40;99.90;;;;;;5023062;28;20021;-75
2022/08/20 00:31:31;;;;;;;32.97;22.42;;;17.50;99.90;;;;;;5041560;28;20060;-76
2022/08/20 00:33:57;;;;;;;24.05;19.17;;;17.50;99.90;;;;;;5047395;28;20021;-76
2022/08/20 00:36:23;;;;;;;22.98;19.13;;;17.40;99.90;;;;;;5046929;28;20071;-76
2022/08/20 00:38:49;;;;;;;24.65;19.40;;;17.80;99.90;;;;;;5041794;28;20024;-76
2022/08/20 00:41:23;;;;;;;22.50;19.65;;;18.00;99.90;;;;;;5043698;28;20097;-77
2022/08/20 00:44:08;;;;;;;28.70;21.00;;;18.00;99.90;;;;;;5035927;28;20511;-76
2022/08/20 00:46:34;;;;;;;29.02;20.40;;;18.00;99.90;;;;;;5033425;28;20459;-76
2022/08/20 00:49:02;;;;;;;26.90;20.15;;;18.00;99.90;;;;;;5046755;28;20467;-76
2022/08/20 00:51:37;;;;;;;23.27;19.20;;;17.70;99.90;;;;;;5053814;28;20036;-76
2022/08/20 00:54:27;;;;;;;29.48;22.92;;;17.70;99.90;;;;;;5042668;28;20056;-76
2022/08/20 00:57:08;;;;;;;27.95;20.45;;;17.60;99.90;;;;;;5027158;28;20075;-76
2022/08/20 00:59:37;;;;;;;23.05;18.52;;;17.40;99.90;;;;;;5052607;28;20053;-77
2022/08/20 01:02:06;;;;;;;23.83;18.75;;;17.50;99.90;;;;;;5045620;28;20025;-77
2022/08/20 01:04:34;;;;;;;23.20;18.48;;;17.70;99.90;;;;;;5045986;28;20563;-78
2022/08/20 01:07:02;;;;;;;33.75;21.85;;;17.50;99.90;;;;;;5031025;28;20116;-78
2022/08/20 01:09:27;;;;;;;31.30;21.17;;;17.30;99.90;;;;;;5038052;28;20022;-80
2022/08/20 01:11:54;;;;;;;23.38;19.52;;;17.30;99.90;;;;;;5034888;28;20107;-76
2022/08/20 01:17:04;;;;;;;19.85;17.23;;;17.70;99.90;;;;;;5053551;28;20426;-76
2022/08/20 01:19:43;;;;;;;21.20;17.08;;;17.70;99.90;;;;;;5046907;28;20124;-77
2022/08/20 01:25:04;;;;;;;21.83;17.33;;;17.60;99.90;;;;;;5044544;28;20027;-77
2022/08/20 01:27:31;;;;;;;23.35;17.60;;;17.70;99.90;;;;;;5030675;28;20110;-77
2022/08/20 01:29:57;;;;;;;29.23;19.48;;;17.40;99.90;;;;;;5045627;28;20159;-78
2022/08/20 01:32:23;;;;;;;28.20;19.52;;;17.30;99.90;;;;;;5041314;28;20025;-77
2022/08/20 01:34:48;;;;;;;25.65;18.40;;;17.30;99.90;;;;;;5038953;28;20040;-78
2022/08/20 01:37:14;;;;;;;30.13;20.13;;;17.20;99.90;;;;;;5043784;28;20445;-77
2022/08/20 01:39:40;;;;;;;23.40;17.90;;;17.20;99.90;;;;;;5070152;28;20043;-77
2022/08/20 01:42:24;;;;;;;23.80;17.58;;;17.30;99.90;;;;;;5039729;28;20029;-78
2022/08/20 01:44:51;;;;;;;20.73;17.73;;;17.20;99.90;;;;;;5057300;28;20445;-78
2022/08/20 01:47:26;;;;;;;24.50;17.75;;;17.20;99.90;;;;;;5039774;28;20405;-78
2022/08/20 01:49:55;;;;;;;22.95;18.30;;;17.10;99.90;;;;;;5056893;28;20041;-77
2022/08/20 01:52:37;;;;;;;23.45;18.88;;;17.30;99.90;;;;;;5055037;28;20055;-76
2022/08/20 01:55:04;;;;;;;21.30;17.85;;;17.30;99.90;;;;;;5041707;28;20134;-79
2022/08/20 01:57:29;;;;;;;23.75;17.25;;;17.30;99.90;;;;;;5025385;28;20033;-79
2022/08/20 01:59:55;;;;;;;22.02;17.58;;;17.20;99.90;;;;;;5048284;28;20032;-79
2022/08/20 02:02:23;;;;;;;24.05;18.02;;;17.00;99.90;;;;;;5029477;28;20025;-79
2022/08/20 02:04:48;;;;;;;20.63;18.23;;;17.10;99.90;;;;;;5042115;28;20013;-79
2022/08/20 02:07:17;;;;;;;24.17;18.45;;;17.00;99.90;;;;;;5024453;28;20403;-78
2022/08/20 02:09:43;;;;;;;24.77;18.08;;;17.20;99.90;;;;;;5028967;28;20109;-79
2022/08/20 02:12:10;;;;;;;23.77;18.30;;;17.10;99.90;;;;;;5027770;28;20068;-76
2022/08/20 02:14:41;;;;;;;22.20;17.75;;;17.20;99.90;;;;;;5021107;28;20036;-76
2022/08/20 02:17:07;;;;;;;18.35;16.45;;;17.30;99.90;;;;;;5021269;28;20044;-76
2022/08/20 02:19:50;;;;;;;22.88;17.05;;;17.30;99.90;;;;;;5039434;28;20028;-77
2022/08/20 02:22:21;;;;;;;19.50;17.08;;;17.20;99.90;;;;;;5050647;28;20498;-77
2022/08/20 02:24:46;;;;;;;20.08;16.75;;;17.30;99.90;;;;;;5041902;28;20108;-76
2022/08/20 02:27:12;;;;;;;19.40;17.27;;;17.20;99.90;;;;;;5031082;28;20124;-76
2022/08/20 02:29:39;;;;;;;17.10;14.88;;;17.20;99.90;;;;;;5044939;28;20055;-77
2022/08/20 02:32:07;;;;;;;18.77;14.73;;;17.20;99.90;;;;;;5031660;28;20110;-77
2022/08/20 02:34:34;;;;;;;18.85;15.43;;;17.30;99.90;;;;;;5046031;28;20032;-75
2022/08/20 02:37:00;;;;;;;16.50;14.75;;;17.30;99.90;;;;;;5050536;28;20032;-77
2022/08/20 02:39:26;;;;;;;20.05;16.27;;;17.40;99.90;;;;;;5033816;28;20483;-77
2022/08/20 02:41:52;;;;;;;17.25;14.32;;;17.30;99.90;;;;;;5047550;28;20096;-76
2022/08/20 02:44:20;;;;;;;19.48;15.18;;;17.40;99.90;;;;;;5051871;28;20451;-76
2022/08/20 02:46:48;;;;;;;19.45;16.13;;;17.40;99.90;;;;;;5032548;28;20034;-78
2022/08/20 02:49:16;;;;;;;20.80;16.77;;;17.40;99.90;;;;;;5049028;28;20043;-77
2022/08/20 02:51:43;;;;;;;24.00;18.02;;;17.40;99.90;;;;;;5046519;28;20025;-77
2022/08/20 02:54:09;;;;;;;32.17;21.98;;;17.30;99.90;;;;;;5053570;28;20053;-77
2022/08/20 02:56:35;;;;;;;33.45;21.40;;;16.90;99.90;;;;;;5028668;28;20021;-77
2022/08/20 02:59:01;;;;;;;37.95;23.95;;;16.90;99.90;;;;;;5044135;28;20371;-75
2022/08/20 03:01:27;;;;;;;26.17;20.10;;;16.80;99.90;;;;;;5038176;28;20021;-74
2022/08/20 03:03:54;;;;;;;28.23;20.08;;;16.80;99.90;;;;;;5039673;28;20045;-75
2022/08/20 03:06:20;;;;;;;26.00;19.15;;;16.90;99.90;;;;;;5044934;28;20018;-75
2022/08/20 03:08:46;;;;;;;25.17;19.35;;;16.90;99.90;;;;;;5043257;28;20534;-75
2022/08/20 03:11:12;;;;;;;18.88;16.17;;;16.90;99.90;;;;;;5038110;28;20033;-75
2022/08/20 03:13:38;;;;;;;22.70;17.15;;;16.80;99.90;;;;;;5039834;28;20092;-75
2022/08/20 03:16:04;;;;;;;21.13;16.40;;;17.10;99.90;;;;;;5027016;28;20022;-75
2022/08/20 03:18:43;;;;;;;21.88;17.60;;;17.20;99.90;;;;;;5025294;28;20120;-75
2022/08/20 03:21:10;;;;;;;27.52;19.05;;;17.00;99.90;;;;;;5038515;28;20053;-75
2022/08/20 03:23:37;;;;;;;24.80;18.90;;;17.00;99.90;;;;;;5051077;28;20112;-75
2022/08/20 03:26:05;;;;;;;24.20;18.65;;;17.10;99.90;;;;;;5045462;28;20036;-75
2022/08/20 03:28:31;;;;;;;28.30;21.02;;;17.10;99.90;;;;;;5051063;28;20478;-75
2022/08/20 03:30:58;;;;;;;22.92;17.98;;;17.00;99.90;;;;;;5051274;28;20049;-74
2022/08/20 03:33:24;;;;;;;27.00;19.80;;;16.80;99.90;;;;;;5050527;28;20104;-75
2022/08/20 03:35:50;;;;;;;27.80;20.75;;;16.90;99.90;;;;;;5021164;28;20033;-76
2022/08/20 03:38:17;;;;;;;26.92;21.45;;;17.00;99.90;;;;;;5040330;28;20083;-77
2022/08/20 03:40:44;;;;;;;32.55;23.27;;;17.20;99.90;;;;;;5044300;28;20429;-80
2022/08/20 03:43:10;;;;;;;28.63;21.48;;;17.10;99.90;;;;;;5054375;28;20027;-78
2022/08/20 03:45:38;;;;;;;26.75;20.40;;;16.90;99.90;;;;;;5024951;28;20029;-79
2022/08/20 03:48:06;;;;;;;27.30;20.88;;;17.10;99.90;;;;;;5038051;28;20379;-79
2022/08/20 03:50:33;;;;;;;33.38;23.25;;;17.00;99.90;;;;;;5029291;28;20029;-78
2022/08/20 03:52:59;;;;;;;34.05;23.45;;;16.90;99.90;;;;;;5055508;28;20052;-79
2022/08/20 03:55:27;;;;;;;29.05;21.85;;;16.80;99.90;;;;;;5052467;28;20025;-78
2022/08/20 03:57:56;;;;;;;32.33;24.05;;;16.80;99.90;;;;;;5045313;28;20560;-79
2022/08/20 04:00:28;;;;;;;31.23;22.70;;;16.90;99.90;;;;;;5055971;28;20034;-79
2022/08/20 04:02:55;;;;;;;35.00;25.20;;;17.00;99.90;;;;;;5039190;28;20082;-77
2022/08/20 04:05:25;;;;;;;36.30;25.45;;;16.90;99.90;;;;;;5040256;28;20475;-77
2022/08/20 04:07:51;;;;;;;37.60;25.27;;;16.80;99.90;;;;;;5043227;28;20025;-76
2022/08/20 04:10:17;;;;;;;42.60;27.58;;;16.70;99.90;;;;;;5029189;28;20029;-77
2022/08/20 04:12:42;;;;;;;40.42;25.92;;;16.60;99.90;;;;;;5055074;28;20029;-78
2022/08/20 04:15:11;;;;;;;43.22;26.40;;;16.60;99.90;;;;;;5034559;28;20036;-78
2022/08/20 04:17:40;;;;;;;35.80;23.35;;;16.50;99.90;;;;;;5048628;28;20021;-77
2022/08/20 04:20:08;;;;;;;39.35;26.08;;;16.60;99.90;;;;;;5043341;28;20397;-76
2022/08/20 04:22:33;;;;;;;35.40;24.65;;;16.70;99.90;;;;;;5031416;28;20117;-78
2022/08/20 04:24:59;;;;;;;38.25;24.95;;;16.70;99.90;;;;;;5029404;28;20057;-77
2022/08/20 04:27:24;;;;;;;37.47;24.98;;;16.60;99.90;;;;;;5045688;28;20029;-78
2022/08/20 04:29:50;;;;;;;37.72;25.30;;;16.60;99.90;;;;;;5031954;28;20555;-77
2022/08/20 04:32:15;;;;;;;38.35;24.35;;;16.60;99.90;;;;;;5035760;28;20141;-78
2022/08/20 04:34:43;;;;;;;36.47;24.92;;;16.60;99.90;;;;;;5032955;28;20029;-78
2022/08/20 04:37:10;;;;;;;32.72;22.77;;;16.60;99.90;;;;;;5038837;28;20040;-78
2022/08/20 04:39:35;;;;;;;29.48;21.25;;;16.70;99.90;;;;;;5027385;28;20403;-78
2022/08/20 04:42:01;;;;;;;30.95;22.88;;;16.70;99.90;;;;;;5034066;28;20027;-75
2022/08/20 04:44:27;;;;;;;36.80;24.92;;;16.80;99.90;;;;;;5029164;28;20036;-77
2022/08/20 04:46:53;;;;;;;36.13;23.95;;;16.80;99.90;;;;;;5025461;28;20115;-77
2022/08/20 04:49:21;;;;;;;34.15;23.92;;;16.80;99.90;;;;;;5026465;28;20057;-77
2022/08/20 04:51:47;;;;;;;29.13;21.75;;;16.80;99.90;;;;;;5031018;28;20025;-76
2022/08/20 04:54:13;;;;;;;29.75;21.92;;;16.80;99.90;;;;;;5030689;28;20453;-78
2022/08/20 04:56:39;;;;;;;35.03;23.98;;;16.80;99.90;;;;;;5043465;28;20103;-77
2022/08/20 04:59:06;;;;;;;37.65;23.13;;;16.70;99.90;;;;;;5055275;28;20427;-75
2022/08/20 05:01:32;;;;;;;42.35;25.15;;;16.70;99.90;;;;;;5054878;28;20045;-76
2022/08/20 05:03:58;;;;;;;33.15;23.65;;;16.70;99.90;;;;;;5025987;28;20049;-78
2022/08/20 05:06:27;;;;;;;34.83;22.83;;;16.80;99.90;;;;;;5052002;28;20029;-79
2022/08/20 05:08:54;;;;;;;32.20;22.10;;;16.80;99.90;;;;;;5049465;28;20025;-78
2022/08/20 05:11:21;;;;;;;28.95;21.95;;;16.80;99.90;;;;;;5051341;28;20021;-78
2022/08/20 05:13:47;;;;;;;28.02;21.67;;;16.80;99.90;;;;;;5051193;28;20032;-78
2022/08/20 05:16:14;;;;;;;31.17;22.63;;;17.10;99.90;;;;;;5026768;28;20032;-78
2022/08/20 05:18:39;;;;;;;29.63;21.58;;;16.90;99.90;;;;;;5039786;28;20059;-79
2022/08/20 05:21:05;;;;;;;30.42;22.77;;;16.90;99.90;;;;;;5050617;28;20026;-78
2022/08/20 05:23:37;;;;;;;25.70;20.10;;;17.00;99.90;;;;;;5050142;28;20025;-78
2022/08/20 05:26:08;;;;;;;31.13;21.50;;;17.10;99.90;;;;;;5026474;28;20474;-78
2022/08/20 05:28:37;;;;;;;29.58;22.13;;;17.00;99.90;;;;;;5038366;28;20367;-77
2022/08/20 05:31:05;;;;;;;33.53;23.25;;;16.90;99.90;;;;;;5027118;28;20029;-78
2022/08/20 05:33:31;;;;;;;31.25;22.65;;;16.90;99.90;;;;;;5038889;28;20056;-78
2022/08/20 05:35:57;;;;;;;25.58;20.85;;;17.00;99.90;;;;;;5052484;28;20033;-77
2022/08/20 05:38:27;;;;;;;32.42;22.48;;;17.10;99.90;;;;;;5029067;28;20033;-78
2022/08/20 05:40:52;;;;;;;28.75;21.98;;;17.30;99.90;;;;;;5067515;28;20029;-78
2022/08/20 05:43:19;;;;;;;30.90;22.98;;;17.20;99.90;;;;;;5052990;28;20025;-77
2022/08/20 05:45:51;;;;;;;27.85;21.88;;;17.30;99.90;;;;;;5028034;28;20033;-78
2022/08/20 05:48:20;;;;;;;30.17;22.23;;;17.50;99.90;;;;;;5057415;28;20047;-78
2022/08/20 05:50:48;;;;;;;28.77;23.27;;;17.10;99.90;;;;;;5040485;28;20501;-78
2022/08/20 05:53:15;;;;;;;33.53;24.17;;;17.00;99.90;;;;;;5035674;28;20558;-74
2022/08/20 05:55:41;;;;;;;32.50;23.98;;;17.00;99.90;;;;;;5034624;28;20021;-77
2022/08/20 05:58:17;;;;;;;29.90;23.83;;;17.00;99.90;;;;;;5040861;28;20032;-77
2022/08/20 06:00:42;;;;;;;34.15;24.38;;;17.00;99.90;;;;;;5024461;28;20033;-77
2022/08/20 06:05:52;;;;;;;32.50;23.83;;;17.20;99.90;;;;;;5053881;28;20055;-77
2022/08/20 06:08:17;;;;;;;31.88;23.30;;;17.30;99.90;;;;;;5041550;28;20029;-78
2022/08/20 06:10:43;;;;;;;33.47;24.27;;;17.20;99.90;;;;;;5023043;28;20064;-78
2022/08/20 06:13:09;;;;;;;30.00;22.27;;;17.20;99.90;;;;;;5047247;28;20053;-77
2022/08/20 06:15:35;;;;;;;31.95;24.40;;;17.20;99.90;;;;;;5029799;28;20464;-77
2022/08/20 06:18:06;;;;;;;33.58;24.67;;;17.40;99.90;;;;;;5023600;28;20029;-77
2022/08/20 06:20:33;;;;;;;32.33;25.05;;;17.20;99.90;;;;;;5023895;28;20376;-78
2022/08/20 06:22:58;;;;;;;33.25;23.55;;;17.40;99.90;;;;;;5029933;28;20096;-78
2022/08/20 06:25:24;;;;;;;34.50;25.55;;;17.30;99.90;;;;;;5051490;28;20074;-78
2022/08/20 06:27:49;;;;;;;37.53;25.73;;;17.40;99.90;;;;;;5035546;28;20026;-79
2022/08/20 06:30:16;;;;;;;39.20;27.63;;;17.20;99.90;;;;;;5036415;28;20093;-77
2022/08/20 06:32:42;;;;;;;44.55;28.63;;;17.50;99.90;;;;;;5055412;28;20108;-77
2022/08/20 06:35:09;;;;;;;42.60;30.30;;;17.40;99.90;;;;;;5026728;28;20045;-78
2022/08/20 06:37:36;;;;;;;42.45;29.80;;;17.50;99.90;;;;;;5033715;28;20034;-78
2022/08/20 06:40:13;;;;;;;46.42;30.92;;;17.50;99.90;;;;;;5037874;28;20059;-77
2022/08/20 06:42:42;;;;;;;52.13;32.67;;;17.50;99.90;;;;;;5061149;28;20028;-78
2022/08/20 06:45:15;;;;;;;45.97;31.05;;;17.50;99.90;;;;;;5058017;28;20036;-78
2022/08/20 06:47:42;;;;;;;45.17;31.00;;;17.50;99.90;;;;;;5044502;28;20018;-79
2022/08/20 06:50:18;;;;;;;47.58;31.58;;;17.80;99.90;;;;;;5030309;28;20033;-77
2022/08/20 06:52:45;;;;;;;49.42;32.05;;;17.70;99.90;;;;;;5030293;28;20429;-78
2022/08/20 06:55:13;;;;;;;47.80;31.42;;;17.60;99.90;;;;;;5041947;28;20021;-78
2022/08/20 06:57:39;;;;;;;50.13;32.10;;;17.60;99.90;;;;;;5023445;28;20064;-77
2022/08/20 07:00:08;;;;;;;49.08;31.45;;;17.60;99.90;;;;;;5047304;28;20029;-78
2022/08/20 07:02:35;;;;;;;48.47;32.38;;;17.80;99.90;;;;;;5031067;28;20047;-78
2022/08/20 07:05:01;;;;;;;48.45;31.85;;;17.80;99.90;;;;;;5054775;28;20541;-78
2022/08/20 07:07:26;;;;;;;48.88;31.40;;;17.80;99.90;;;;;;5049538;28;20041;-78
2022/08/20 07:10:00;;;;;;;45.40;30.95;;;18.00;99.90;;;;;;5065657;28;20061;-79
2022/08/20 07:12:26;;;;;;;48.20;32.33;;;18.00;99.90;;;;;;5047540;28;20025;-78
2022/08/20 07:14:51;;;;;;;52.80;33.42;;;18.00;99.90;;;;;;5047591;28;20140;-78
2022/08/20 07:17:17;;;;;;;48.65;32.80;;;17.80;99.90;;;;;;5052258;28;20049;-78
2022/08/20 07:19:42;;;;;;;51.85;34.30;;;17.90;99.90;;;;;;5044442;28;20037;-77
2022/08/20 07:22:08;;;;;;;46.35;34.25;;;17.90;99.90;;;;;;5034621;28;20181;-77
2022/08/20 07:24:33;;;;;;;43.35;31.20;;;17.90;99.90;;;;;;5043498;28;20029;-78
2022/08/20 07:26:59;;;;;;;47.30;32.00;;;18.20;99.90;;;;;;5026437;28;20029;-77
2022/08/20 07:32:33;;;;;;;45.97;32.38;;;18.30;99.90;;;;;;5032129;28;20105;-75
2022/08/20 07:34:55;;;;;;;45.53;32.30;;;18.40;99.90;;;;;;5048347;28;20051;-75
2022/08/20 07:37:22;;;;;;;32.88;24.83;;;18.50;99.90;;;;;;5041753;28;20033;-74
2022/08/20 07:39:48;;;;;;;41.97;31.48;;;18.70;99.90;;;;;;5038946;28;20404;-75
2022/08/20 07:42:14;;;;;;;40.05;30.73;;;18.50;99.90;;;;;;5043433;28;20029;-75
2022/08/20 07:44:39;;;;;;;46.90;33.13;;;18.50;99.90;;;;;;5054829;28;20051;-75
2022/08/20 07:47:05;;;;;;;41.10;30.25;;;18.40;99.90;;;;;;5030167;28;20021;-75
2022/08/20 07:49:31;;;;;;;41.35;32.13;;;18.50;99.90;;;;;;5030486;28;20029;-74
2022/08/20 07:51:57;;;;;;;37.40;30.17;;;18.60;99.90;;;;;;5024514;28;20394;-74
2022/08/20 07:54:23;;;;;;;40.28;30.05;;;18.80;99.90;;;;;;5041516;28;20022;-74
2022/08/20 07:56:48;;;;;;;38.33;29.00;;;18.90;99.90;;;;;;5054741;28;20099;-75
2022/08/20 07:59:14;;;;;;;40.40;30.80;;;19.10;99.90;;;;;;5041635;28;20471;-75
2022/08/20 08:01:39;;;;;;;36.95;28.95;;;19.20;99.90;;;;;;5047407;28;20013;-75
2022/08/20 08:04:05;;;;;;;38.85;29.70;;;19.50;99.90;;;;;;5048040;28;20082;-75
2022/08/20 08:06:31;;;;;;;35.90;28.20;;;19.70;99.90;;;;;;5042210;28;20076;-75
2022/08/20 08:09:06;;;;;;;35.78;27.95;;;19.70;99.90;;;;;;5041228;28;20101;-75
2022/08/20 08:11:36;;;;;;;33.35;28.25;;;19.50;99.90;;;;;;5028334;28;20025;-75
2022/08/20 08:14:05;;;;;;;34.25;27.35;;;19.40;99.90;;;;;;5048579;28;20017;-75
2022/08/20 08:16:31;;;;;;;32.70;27.00;;;19.30;99.90;;;;;;5043728;28;20056;-76
2022/08/20 08:18:57;;;;;;;31.83;26.30;;;19.80;99.90;;;;;;5041084;28;20029;-74
2022/08/20 08:21:23;;;;;;;30.83;25.05;;;20.00;99.90;;;;;;5053625;28;20556;-75
2022/08/20 08:23:49;;;;;;;38.00;28.58;;;20.20;99.90;;;;;;5040834;28;20032;-75
2022/08/20 08:26:16;;;;;;;34.33;26.75;;;20.20;99.90;;;;;;5045154;28;20464;-75
2022/08/20 08:28:43;;;;;;;35.55;28.80;;;20.00;99.90;;;;;;5047570;28;20029;-75
2022/08/20 08:31:09;;;;;;;36.38;28.77;;;19.50;99.90;;;;;;5026172;28;20048;-75
2022/08/20 08:33:35;;;;;;;33.47;28.60;;;19.70;99.90;;;;;;5023131;28;20025;-76
2022/08/20 08:36:03;;;;;;;30.38;26.48;;;19.90;99.90;;;;;;5044064;28;20030;-76
2022/08/20 08:38:34;;;;;;;32.85;26.95;;;20.20;99.90;;;;;;5047430;28;20061;-76
2022/08/20 08:41:22;;;;;;;33.63;28.33;;;20.20;99.90;;;;;;5026795;28;20025;-76
2022/08/20 08:43:52;;;;;;;36.13;28.33;;;20.10;99.90;;;;;;5022808;28;20025;-75
2022/08/20 08:46:21;;;;;;;32.38;26.67;;;20.00;99.90;;;;;;5054270;28;20044;-75
2022/08/20 08:48:52;;;;;;;30.73;26.27;;;20.10;99.90;;;;;;5035924;28;20017;-75
2022/08/20 08:51:36;;;;;;;31.02;26.85;;;20.30;99.90;;;;;;5034652;28;20107;-74
2022/08/20 08:54:04;;;;;;;30.55;26.05;;;20.50;99.90;;;;;;5044964;28;20437;-74
2022/08/20 08:56:29;;;;;;;32.20;26.65;;;20.50;99.90;;;;;;5022938;28;20028;-75
2022/08/20 08:59:03;;;;;;;33.28;27.27;;;20.40;99.90;;;;;;5024208;28;20038;-74
2022/08/20 09:01:32;;;;;;;30.13;25.52;;;20.10;99.90;;;;;;5040326;28;20538;-74
2022/08/20 09:03:58;;;;;;;32.85;28.05;;;20.20;99.90;;;;;;5040663;28;20026;-75
2022/08/20 09:06:25;;;;;;;33.38;27.85;;;20.20;99.90;;;;;;5047219;28;20483;-74
2022/08/20 09:08:52;;;;;;;33.92;28.85;;;20.00;99.90;;;;;;5046439;28;20028;-74
2022/08/20 09:11:20;;;;;;;33.70;27.38;;;20.10;99.90;;;;;;5040240;28;20040;-76
2022/08/20 09:13:47;;;;;;;31.65;26.23;;;19.90;99.90;;;;;;5053670;28;20025;-76
2022/08/20 09:16:13;;;;;;;33.53;28.50;;;20.00;99.90;;;;;;5033510;28;20100;-76
2022/08/20 09:18:39;;;;;;;35.00;28.13;;;19.90;99.90;;;;;;5046655;28;20029;-76
2022/08/20 09:21:05;;;;;;;34.72;26.45;;;19.90;99.90;;;;;;5040437;28;20036;-75
2022/08/20 09:23:31;;;;;;;33.17;27.60;;;20.00;99.90;;;;;;5039706;28;20033;-75
2022/08/20 09:25:57;;;;;;;34.92;28.05;;;20.00;99.90;;;;;;5045891;28;20021;-75
2022/08/20 09:28:23;;;;;;;29.95;26.52;;;20.00;99.90;;;;;;5028820;28;20490;-75
2022/08/20 09:30:48;;;;;;;30.20;25.35;;;20.10;99.90;;;;;;5042479;28;20103;-75
2022/08/20 09:33:14;;;;;;;31.88;26.83;;;20.30;99.90;;;;;;5040438;28;20036;-77
2022/08/20 09:35:40;;;;;;;33.55;27.15;;;20.30;99.90;;;;;;5053432;28;20503;-75
2022/08/20 09:38:06;;;;;;;32.10;25.92;;;20.40;99.90;;;;;;5052320;28;20025;-75
2022/08/20 09:40:32;;;;;;;31.70;26.60;;;20.30;99.90;;;;;;5052811;28;20024;-74
2022/08/20 09:42:57;;;;;;;33.65;25.77;;;20.20;99.90;;;;;;5034737;28;20434;-75
2022/08/20 09:45:23;;;;;;;31.02;25.92;;;20.40;99.90;;;;;;5028643;28;20029;-76
2022/08/20 09:47:49;;;;;;;30.48;26.00;;;20.10;99.90;;;;;;5028154;28;20426;-75
2022/08/20 09:50:14;;;;;;;27.73;24.40;;;20.10;99.90;;;;;;5052485;28;20028;-79
2022/08/20 09:52:49;;;;;;;31.25;25.77;;;20.40;99.90;;;;;;5040330;28;20388;-79
2022/08/20 09:55:27;;;;;;;29.20;24.70;;;20.50;99.90;;;;;;5051406;28;20032;-79
2022/08/20 09:57:53;;;;;;;33.67;25.33;;;20.60;99.90;;;;;;5071209;28;20090;-79
2022/08/20 10:00:19;;;;;;;28.30;24.25;;;20.60;99.90;;;;;;5070114;28;20021;-79
2022/08/20 10:02:45;;;;;;;26.92;22.25;;;20.70;99.90;;;;;;5023390;28;20820;-76
2022/08/20 10:05:11;;;;;;;28.02;23.50;;;21.00;99.90;;;;;;5042059;28;20021;-76
2022/08/20 10:07:38;;;;;;;29.40;22.77;;;21.10;99.90;;;;;;5049530;28;20565;-76
2022/08/20 10:10:05;;;;;;;26.00;23.10;;;21.20;99.90;;;;;;5023915;28;20445;-76
2022/08/20 10:12:31;;;;;;;26.50;23.63;;;21.20;99.90;;;;;;5036137;28;20033;-76
2022/08/20 10:14:57;;;;;;;28.00;25.02;;;21.00;99.90;;;;;;5041834;28;20110;-76
2022/08/20 10:17:23;;;;;;;28.15;24.13;;;21.00;99.90;;;;;;5035999;28;20136;-76
2022/08/20 10:19:48;;;;;;;27.50;22.98;;;21.20;99.90;;;;;;5023697;28;20028;-76
2022/08/20 10:22:14;;;;;;;25.88;22.65;;;21.20;99.90;;;;;;5038676;28;20495;-76
2022/08/20 10:24:39;;;;;;;26.23;22.48;;;21.30;99.90;;;;;;5051422;28;20021;-76
2022/08/20 10:27:05;;;;;;;26.63;23.60;;;21.40;99.90;;;;;;5048183;28;20032;-76
2022/08/20 10:29:31;;;;;;;24.13;21.67;;;21.50;99.90;;;;;;5033181;28;20513;-77
2022/08/20 10:32:11;;;;;;;27.00;22.23;;;21.70;99.90;;;;;;5040169;28;20013;-76
2022/08/20 10:34:41;;;;;;;27.58;23.85;;;21.80;99.90;;;;;;5018316;28;20487;-76
2022/08/20 10:37:08;;;;;;;25.20;22.48;;;22.20;99.90;;;;;;5033907;28;20536;-76
2022/08/20 10:39:33;;;;;;;28.73;21.83;;;22.30;99.90;;;;;;5057745;28;20024;-75
2022/08/20 10:41:59;;;;;;;27.95;22.70;;;22.60;99.90;;;;;;5053109;28;20104;-76
2022/08/20 10:44:25;;;;;;;26.33;21.58;;;22.60;99.90;;;;;;5051456;28;20544;-76
2022/08/20 10:46:51;;;;;;;23.25;20.77;;;22.40;99.90;;;;;;5044468;28;20029;-75
2022/08/20 10:49:16;;;;;;;22.00;19.67;;;22.70;99.90;;;;;;5043412;28;20465;-76
2022/08/20 10:51:42;;;;;;;23.35;20.63;;;23.00;99.90;;;;;;5033816;28;20371;-76
2022/08/20 10:54:08;;;;;;;22.50;20.10;;;23.20;99.90;;;;;;5045248;28;20029;-76
2022/08/20 10:56:33;;;;;;;22.27;19.67;;;22.90;99.90;;;;;;5041557;28;20039;-76
2022/08/20 10:58:59;;;;;;;22.30;19.83;;;23.00;99.90;;;;;;5051360;28;20052;-76
2022/08/20 11:01:24;;;;;;;21.45;19.15;;;23.10;99.90;;;;;;5025334;28;20033;-76
2022/08/20 11:03:50;;;;;;;21.15;18.90;;;23.20;99.90;;;;;;5033287;28;20025;-76
2022/08/20 11:06:15;;;;;;;22.90;17.98;;;23.30;99.90;;;;;;5022892;28;20646;-75
2022/08/20 11:08:41;;;;;;;20.40;17.77;;;23.30;99.90;;;;;;5017074;28;20021;-75
2022/08/20 11:11:07;;;;;;;21.80;19.05;;;23.50;99.90;;;;;;5031848;28;20023;-76
2022/08/20 11:13:34;;;;;;;21.95;19.67;;;23.30;99.90;;;;;;5051288;28;20049;-76
2022/08/20 11:16:01;;;;;;;23.33;20.67;;;23.30;99.90;;;;;;5025209;28;20027;-76
2022/08/20 11:18:27;;;;;;;22.48;19.13;;;23.00;99.90;;;;;;5051384;28;20025;-75
2022/08/20 11:20:53;;;;;;;22.60;18.75;;;22.70;99.90;;;;;;5039035;28;20390;-74
2022/08/20 11:23:19;;;;;;;24.08;19.75;;;22.70;99.90;;;;;;5047544;28;20020;-74
2022/08/20 11:25:45;;;;;;;21.00;17.98;;;22.50;99.90;;;;;;5046174;28;20024;-75
2022/08/20 11:28:11;;;;;;;22.48;17.88;;;22.50;99.90;;;;;;5046133;28;20021;-74
2022/08/20 11:30:37;;;;;;;23.20;17.60;;;22.50;99.90;;;;;;5026045;28;20028;-75
2022/08/20 11:33:03;;;;;;;20.73;18.20;;;22.30;99.90;;;;;;5045252;28;20036;-75
2022/08/20 11:35:31;;;;;;;21.65;18.00;;;22.40;99.90;;;;;;5050857;28;20090;-75
2022/08/20 11:37:58;;;;;;;19.48;16.55;;;22.30;99.90;;;;;;5046198;28;20402;-75
2022/08/20 11:40:24;;;;;;;20.15;16.33;;;22.30;99.90;;;;;;5049900;28;20105;-75
2022/08/20 11:42:50;;;;;;;18.27;16.30;;;22.40;99.90;;;;;;5051092;28;20017;-75
2022/08/20 11:45:16;;;;;;;21.05;17.20;;;22.50;99.90;;;;;;5042708;28;20028;-74
2022/08/20 11:47:42;;;;;;;21.42;18.42;;;22.50;99.90;;;;;;5052756;28;20029;-77
2022/08/20 11:50:11;;;;;;;26.70;18.92;;;22.50;99.90;;;;;;5055303;28;20044;-77
2022/08/20 11:52:37;;;;;;;22.35;18.10;;;22.30;99.90;;;;;;5037740;28;20025;-78
2022/08/20 11:55:05;;;;;;;21.25;18.35;;;22.70;99.90;;;;;;5042678;28;20091;-78
2022/08/20 11:57:33;;;;;;;20.40;17.40;;;23.20;99.90;;;;;;5054939;28;20032;-78
2022/08/20 12:00:00;;;;;;;19.77;17.15;;;23.80;99.90;;;;;;5028157;28;20491;-77
2022/08/20 12:02:27;;;;;;;22.77;17.42;;;23.90;99.90;;;;;;5021893;28;20116;-77
2022/08/20 12:04:53;;;;;;;18.42;16.02;;;24.00;99.90;;;;;;5039234;28;20251;-78
2022/08/20 12:07:22;;;;;;;18.33;16.33;;;24.00;99.90;;;;;;5052154;28;20025;-78
2022/08/20 12:09:48;;;;;;;17.98;15.00;;;24.00;99.90;;;;;;5025498;28;20493;-78
2022/08/20 12:12:14;;;;;;;19.75;15.32;;;24.10;99.90;;;;;;5016536;28;20486;-79
2022/08/20 12:14:40;;;;;;;18.15;14.90;;;24.00;99.90;;;;;;5034894;28;20383;-79
2022/08/20 12:17:22;;;;;;;17.10;13.70;;;24.20;99.90;;;;;;5051726;28;20082;-78
2022/08/20 12:19:48;;;;;;;16.65;12.70;;;24.30;99.90;;;;;;5057913;28;20025;-77
2022/08/20 12:22:14;;;;;;;15.73;13.63;;;24.30;99.90;;;;;;5023825;28;20161;-79
2022/08/20 12:24:40;;;;;;;16.52;13.82;;;23.90;99.90;;;;;;5046808;28;20537;-78
2022/08/20 12:27:14;;;;;;;19.25;13.80;;;23.90;99.90;;;;;;5021676;28;20502;-77
2022/08/20 12:29:41;;;;;;;17.40;13.27;;;24.30;99.90;;;;;;5044571;28;20022;-76
2022/08/20 12:32:08;;;;;;;19.67;14.77;;;24.00;99.90;;;;;;5040745;28;20045;-76
2022/08/20 12:34:35;;;;;;;15.70;14.02;;;23.90;99.90;;;;;;5043936;28;20096;-76
2022/08/20 12:37:15;;;;;;;15.25;13.65;;;24.20;99.90;;;;;;5051413;28;20447;-77
2022/08/20 12:39:43;;;;;;;15.63;14.00;;;24.40;99.90;;;;;;5023575;28;20028;-76
2022/08/20 12:42:09;;;;;;;16.35;14.65;;;24.40;99.90;;;;;;5049230;28;20495;-79